Time;durP1;ratioP1;P1;durP2;ratioP2;P2;SDS_P1;SDS_P2;PMS_P1;PMS_P2;Temp;Humidity;BMP_temperature;BMP_pressure;BME280_temperature;BME280_humidity;BME280_pressure;Samples;Min_cycle;Max_cycle;Signal;HPM_P1;HPM_P2
2020/12/15 00:00:29;;;;;;;57.35;27.75;;;;;;;5.36;68.09;100565.13;4405905;32;34979;-52
2020/12/15 00:02:57;;;;;;;62.35;28.02;;;;;;;5.47;67.57;100561.53;4406108;32;34068;-50
2020/12/15 00:05:24;;;;;;;63.33;27.35;;;;;;;5.41;68.01;100557.19;4404364;32;33339;-50
2020/12/15 00:07:51;;;;;;;66.70;27.48;;;;;;;5.45;67.58;100558.91;4406481;32;34905;-52
2020/12/15 00:10:18;;;;;;;67.68;30.70;;;;;;;5.18;68.75;100565.31;4405776;32;34908;-53
2020/12/15 00:12:45;;;;;;;62.62;28.70;;;;;;;5.14;68.75;100561.84;4406766;32;33030;-51
2020/12/15 00:15:15;;;;;;;67.75;30.55;;;;;;;5.18;68.59;100551.34;4401892;32;34668;-51
2020/12/15 00:17:43;;;;;;;71.45;30.95;;;;;;;4.79;70.06;100553.41;4408620;32;35025;-50
2020/12/15 00:20:10;;;;;;;61.28;31.30;;;;;;;5.27;68.44;100556.47;4407469;32;34391;-51
2020/12/15 00:22:37;;;;;;;66.85;31.40;;;;;;;5.32;68.08;100559.94;4408453;32;33399;-49
2020/12/15 00:25:05;;;;;;;64.55;29.83;;;;;;;5.47;67.76;100553.66;4407914;32;33621;-50
2020/12/15 00:27:32;;;;;;;73.32;32.47;;;;;;;5.22;68.65;100553.91;4408203;32;34965;-52
2020/12/15 00:29:59;;;;;;;63.92;29.35;;;;;;;5.32;68.42;100546.84;4406564;32;34989;-50
2020/12/15 00:32:26;;;;;;;67.07;29.67;;;;;;;5.65;67.37;100540.34;4408220;32;33184;-53
2020/12/15 00:34:55;;;;;;;62.50;29.50;;;;;;;5.27;68.47;100549.50;4407626;32;34699;-50
2020/12/15 00:37:22;;;;;;;65.12;29.90;;;;;;;5.33;68.19;100549.44;4408493;32;35818;-51
2020/12/15 00:39:49;;;;;;;66.20;30.67;;;;;;;5.34;68.13;100550.28;4405734;32;34670;-53
2020/12/15 00:42:16;;;;;;;71.90;32.97;;;;;;;5.19;69.14;100542.59;4408456;32;34182;-53
2020/12/15 00:44:46;;;;;;;71.70;30.20;;;;;;;5.25;69.18;100547.78;4393414;32;34539;-50
2020/12/15 00:47:15;;;;;;;75.20;31.83;;;;;;;5.24;69.00;100541.66;4408287;32;35562;-52
2020/12/15 00:49:42;;;;;;;70.87;31.67;;;;;;;4.94;69.84;100544.56;4405599;32;34398;-52
2020/12/15 00:52:10;;;;;;;63.50;29.98;;;;;;;4.88;70.34;100548.97;4392287;32;33549;-51
2020/12/15 00:54:37;;;;;;;62.83;29.65;;;;;;;4.92;70.17;100543.72;4379512;32;33820;-49
2020/12/15 00:57:05;;;;;;;73.65;33.45;;;;;;;5.12;69.71;100547.00;4408378;32;34514;-53
2020/12/15 00:59:32;;;;;;;69.70;32.38;;;;;;;5.21;69.33;100541.69;4405940;32;34405;-52
2020/12/15 01:02:01;;;;;;;69.68;31.05;;;;;;;5.47;68.42;100543.19;4408344;32;33310;-52
2020/12/15 01:04:29;;;;;;;69.47;31.83;;;;;;;5.71;67.54;100532.41;4407083;32;34886;-52
2020/12/15 01:06:57;;;;;;;69.00;31.95;;;;;;;5.36;68.75;100538.03;4408337;32;35639;-52
2020/12/15 01:09:24;;;;;;;71.25;33.13;;;;;;;4.95;70.16;100543.69;4407270;32;35105;-51
2020/12/15 01:11:52;;;;;;;68.05;31.42;;;;;;;5.01;70.23;100539.25;4408300;32;33511;-50
2020/12/15 01:14:20;;;;;;;79.47;33.22;;;;;;;5.03;70.07;100537.53;4407075;32;33891;-49
2020/12/15 01:16:48;;;;;;;65.35;29.05;;;;;;;4.95;70.64;100535.84;4408125;32;34941;-50
2020/12/15 01:19:15;;;;;;;70.00;31.37;;;;;;;5.44;68.84;100541.44;4405514;32;34108;-52
2020/12/15 01:21:43;;;;;;;68.12;30.58;;;;;;;4.78;70.52;100536.84;4407317;32;33149;-52
2020/12/15 01:24:11;;;;;;;54.47;26.02;;;;;;;5.11;69.66;100534.81;4407155;32;34798;-53
2020/12/15 01:26:44;;;;;;;57.30;26.95;;;;;;;4.95;69.62;100541.09;4402089;32;33433;-51
2020/12/15 01:29:12;;;;;;;54.20;27.10;;;;;;;4.62;70.77;100535.25;4405938;32;34890;-50
2020/12/15 01:31:39;;;;;;;54.63;25.37;;;;;;;4.19;72.52;100532.94;4404747;32;33344;-51
2020/12/15 01:34:07;;;;;;;55.67;25.55;;;;;;;4.48;71.48;100534.47;4406721;32;33488;-51
2020/12/15 01:36:36;;;;;;;55.15;26.95;;;;;;;4.87;70.39;100531.53;4407283;32;34959;-53
2020/12/15 01:39:05;;;;;;;59.20;28.35;;;;;;;4.77;70.62;100536.88;4390859;32;33873;-49
2020/12/15 01:41:33;;;;;;;61.58;29.80;;;;;;;4.86;70.29;100535.03;4383427;32;34064;-49
2020/12/15 01:44:03;;;;;;;63.08;28.92;;;;;;;4.52;71.38;100529.22;4386346;32;32359;-50
2020/12/15 01:46:33;;;;;;;60.42;27.87;;;;;;;4.54;71.75;100542.28;4405971;32;35812;-49
2020/12/15 01:49:02;;;;;;;61.28;29.30;;;;;;;4.83;70.73;100540.28;4394650;32;34201;-48
2020/12/15 01:51:35;;;;;;;58.53;27.48;;;;;;;5.23;69.01;100545.19;4390665;32;34184;-50
2020/12/15 01:54:04;;;;;;;57.70;26.45;;;;;;;5.38;68.70;100547.62;4392931;32;34678;-48
2020/12/15 01:56:32;;;;;;;58.60;28.20;;;;;;;5.33;68.92;100541.56;4403886;32;34991;-49
2020/12/15 01:59:03;;;;;;;56.20;28.15;;;;;;;5.27;69.13;100541.66;4406237;32;35067;-49
2020/12/15 02:01:42;;;;;;;55.47;29.05;;;;;;;5.03;69.83;100541.84;4392193;32;33292;-49
2020/12/15 02:04:12;;;;;;;55.20;26.35;;;;;;;5.14;69.75;100537.41;4406550;32;33671;-50
2020/12/15 02:06:44;;;;;;;58.40;27.08;;;;;;;5.18;69.35;100528.66;4406660;32;34902;-47
2020/12/15 02:09:15;;;;;;;60.45;26.75;;;;;;;4.78;70.83;100531.59;4381754;32;32232;-49
2020/12/15 02:11:44;;;;;;;51.78;24.67;;;;;;;4.88;70.19;100525.41;4367241;32;33490;-53
2020/12/15 02:14:13;;;;;;;61.17;28.12;;;;;;;4.19;72.16;100537.28;4379211;32;34403;-49
2020/12/15 02:16:42;;;;;;;53.25;24.87;;;;;;;4.67;70.60;100527.38;4390642;32;35327;-50
2020/12/15 02:19:18;;;;;;;59.53;26.75;;;;;;;4.73;70.28;100533.41;4390821;32;32671;-53
2020/12/15 02:21:57;;;;;;;56.85;24.95;;;;;;;4.90;69.44;100527.19;4399753;32;33378;-52
2020/12/15 02:24:24;;;;;;;49.25;24.63;;;;;;;5.00;69.24;100536.69;4407942;32;33853;-53
2020/12/15 02:26:52;;;;;;;61.08;26.00;;;;;;;5.13;68.70;100530.44;4388993;32;35837;-50
2020/12/15 02:29:21;;;;;;;47.10;22.35;;;;;;;5.29;67.60;100528.53;4392514;32;34043;-51
2020/12/15 02:31:48;;;;;;;50.05;24.10;;;;;;;5.49;66.93;100542.25;4400905;32;33575;-52
2020/12/15 02:34:18;;;;;;;53.45;24.67;;;;;;;5.18;66.80;100531.25;4391099;32;33790;-51
2020/12/15 02:36:45;;;;;;;52.80;25.58;;;;;;;5.45;66.27;100524.84;4389992;32;34890;-48
2020/12/15 02:39:16;;;;;;;52.03;25.02;;;;;;;5.35;66.93;100520.59;4400063;32;33540;-51
2020/12/15 02:42:02;;;;;;;52.80;26.10;;;;;;;5.13;67.44;100519.97;4406431;32;33200;-48
2020/12/15 02:44:30;;;;;;;51.28;25.60;;;;;;;5.19;67.55;100522.53;4405479;32;33477;-51
2020/12/15 02:46:57;;;;;;;52.85;24.37;;;;;;;5.03;67.87;100519.19;4407395;32;35729;-51
2020/12/15 02:49:29;;;;;;;52.15;25.45;;;;;;;4.42;69.91;100524.94;4407053;32;35041;-52
2020/12/15 02:51:57;;;;;;;52.58;24.52;;;;;;;4.80;68.75;100535.09;4406443;32;33406;-51
2020/12/15 02:54:25;;;;;;;49.25;26.87;;;;;;;4.76;68.60;100545.59;4406408;32;33877;-50
2020/12/15 02:56:54;;;;;;;51.65;25.48;;;;;;;5.16;67.38;100540.88;4407271;32;35576;-50
2020/12/15 02:59:21;;;;;;;49.65;23.98;;;;;;;5.15;67.05;100526.03;4406501;32;34150;-52
2020/12/15 03:01:51;;;;;;;59.08;28.45;;;;;;;4.97;67.56;100532.31;4406019;32;33341;-54
2020/12/15 03:04:19;;;;;;;51.80;24.35;;;;;;;4.55;69.63;100541.38;4406394;32;34187;-52
2020/12/15 03:06:48;;;;;;;49.75;24.33;;;;;;;4.83;68.62;100540.28;4393719;32;35819;-48
2020/12/15 03:09:15;;;;;;;56.33;26.02;;;;;;;5.06;67.73;100539.22;4407821;32;34040;-50
2020/12/15 03:11:43;;;;;;;53.40;25.80;;;;;;;4.93;67.61;100534.97;4405138;32;34273;-53
2020/12/15 03:14:11;;;;;;;54.92;24.02;;;;;;;5.15;66.78;100533.91;4407122;32;34546;-49
2020/12/15 03:16:38;;;;;;;52.08;24.00;;;;;;;5.06;67.52;100526.13;4406233;32;34909;-49
2020/12/15 03:19:06;;;;;;;53.92;25.67;;;;;;;4.81;68.70;100525.50;4407577;32;35080;-51
2020/12/15 03:21:37;;;;;;;56.67;27.05;;;;;;;4.76;68.89;100528.16;4377900;32;33160;-50
2020/12/15 03:24:05;;;;;;;57.47;27.52;;;;;;;4.64;69.34;100528.25;4391145;32;33835;-53
2020/12/15 03:26:33;;;;;;;55.47;26.25;;;;;;;4.50;70.25;100530.97;4389592;32;34549;-48
2020/12/15 03:29:01;;;;;;;54.60;26.37;;;;;;;4.50;70.10;100540.56;4406056;32;34906;-51
2020/12/15 03:31:29;;;;;;;55.08;27.40;;;;;;;4.60;69.54;100542.22;4404781;32;34062;-52
2020/12/15 03:33:57;;;;;;;50.20;25.62;;;;;;;4.80;68.66;100547.31;4407026;32;34542;-54
2020/12/15 03:36:24;;;;;;;55.42;25.37;;;;;;;4.38;69.91;100549.37;4405214;32;34840;-51
2020/12/15 03:38:51;;;;;;;61.10;26.87;;;;;;;4.64;69.48;100554.41;4405594;32;34200;-50
2020/12/15 03:41:20;;;;;;;55.67;27.40;;;;;;;5.01;68.16;100544.50;4406129;32;33246;-49
2020/12/15 03:43:47;;;;;;;58.40;27.75;;;;;;;4.84;68.84;100562.97;4401382;32;34540;-50
2020/12/15 03:46:15;;;;;;;54.92;28.87;;;;;;;4.53;69.78;100554.47;4392084;32;34449;-54
2020/12/15 03:48:43;;;;;;;49.33;25.10;;;;;;;4.68;69.27;100550.03;4392326;32;34804;-50
2020/12/15 03:51:11;;;;;;;51.53;26.62;;;;;;;4.57;69.58;100552.72;4401541;32;33957;-54
2020/12/15 03:53:40;;;;;;;57.60;26.17;;;;;;;4.58;69.81;100542.25;4390947;32;33582;-50
2020/12/15 03:56:07;;;;;;;48.13;25.25;;;;;;;4.66;69.31;100544.81;4393564;32;35786;-49
2020/12/15 03:58:36;;;;;;;44.60;22.73;;;;;;;4.57;69.63;100542.25;4381961;32;34277;-52
2020/12/15 04:01:04;;;;;;;53.60;24.50;;;;;;;5.03;68.24;100547.09;4407115;32;34174;-49
2020/12/15 04:03:32;;;;;;;50.85;23.98;;;;;;;4.90;69.13;100555.97;4394724;32;33811;-49
2020/12/15 04:05:59;;;;;;;48.50;24.52;;;;;;;5.23;66.93;100555.66;4394301;32;34826;-50
2020/12/15 04:08:28;;;;;;;50.83;26.50;;;;;;;5.28;66.61;100566.94;4395068;32;33727;-51
2020/12/15 04:10:56;;;;;;;45.92;24.90;;;;;;;4.98;67.97;100569.81;4394559;32;33236;-49
2020/12/15 04:13:26;;;;;;;50.58;24.87;;;;;;;4.99;67.69;100576.81;4407091;32;33914;-51
2020/12/15 04:15:53;;;;;;;50.08;24.92;;;;;;;5.01;68.12;100562.81;4407855;32;34552;-49
2020/12/15 04:18:21;;;;;;;47.60;23.00;;;;;;;4.74;69.03;100571.75;4407690;32;34819;-50
2020/12/15 04:20:51;;;;;;;44.28;22.42;;;;;;;5.02;67.78;100571.53;4403953;32;33230;-49
2020/12/15 04:23:19;;;;;;;39.65;21.15;;;;;;;4.92;68.31;100568.13;4408472;32;34358;-51
2020/12/15 04:25:59;;;;;;;37.65;20.75;;;;;;;5.33;67.12;100561.66;4407254;32;34979;-49
2020/12/15 04:28:27;;;;;;;36.85;19.48;;;;;;;4.61;69.08;100564.91;4423625;32;34243;-49
2020/12/15 04:30:55;;;;;;;37.95;19.73;;;;;;;4.41;70.07;100565.00;4421005;32;34050;-53
2020/12/15 04:33:23;;;;;;;32.13;17.27;;;;;;;4.43;70.07;100562.41;4407961;32;34351;-54
2020/12/15 04:35:51;;;;;;;32.22;17.65;;;;;;;4.70;69.26;100561.31;4394173;32;35728;-50
2020/12/15 04:38:19;;;;;;;34.33;17.92;;;;;;;4.96;68.28;100561.12;4407261;32;34838;-51
2020/12/15 04:40:47;;;;;;;35.72;18.87;;;;;;;4.80;68.52;100556.03;4408412;32;33330;-49
2020/12/15 04:43:18;;;;;;;33.33;17.33;;;;;;;4.53;69.71;100567.56;4377839;32;32632;-49
2020/12/15 04:45:46;;;;;;;36.97;18.42;;;;;;;4.91;68.99;100562.94;4392233;32;35581;-50
2020/12/15 04:48:18;;;;;;;33.08;17.55;;;;;;;5.17;67.66;100565.28;4407503;32;33967;-52
2020/12/15 04:50:49;;;;;;;35.08;18.98;;;;;;;4.91;68.86;100574.25;4394926;32;34105;-49
2020/12/15 04:53:25;;;;;;;32.28;16.48;;;;;;;4.85;69.00;100569.94;4391005;32;33344;-55
2020/12/15 04:55:55;;;;;;;32.30;17.87;;;;;;;4.88;68.51;100564.66;4394937;32;34622;-53
2020/12/15 04:58:24;;;;;;;29.98;16.77;;;;;;;4.68;69.17;100573.56;4407371;32;34256;-51
2020/12/15 05:00:51;;;;;;;32.85;17.73;;;;;;;4.93;68.53;100580.34;4394710;32;32491;-52
2020/12/15 05:03:21;;;;;;;32.63;17.77;;;;;;;5.14;67.82;100579.28;4408197;32;32718;-52
2020/12/15 05:05:50;;;;;;;30.33;15.90;;;;;;;5.09;68.05;100578.47;4407197;32;34884;-49
2020/12/15 05:08:18;;;;;;;30.77;16.30;;;;;;;4.91;68.12;100578.63;4408546;32;34138;-50
2020/12/15 05:10:46;;;;;;;29.02;15.52;;;;;;;5.00;67.70;100584.66;4406307;32;33255;-52
2020/12/15 05:13:23;;;;;;;29.02;16.02;;;;;;;5.30;66.88;100588.72;4407933;32;33625;-51
2020/12/15 05:15:56;;;;;;;31.35;17.33;;;;;;;5.00;67.42;100586.41;4406269;32;34572;-54
2020/12/15 05:18:26;;;;;;;27.62;14.85;;;;;;;4.86;68.15;100595.22;4394895;32;33473;-49
2020/12/15 05:20:55;;;;;;;27.05;15.23;;;;;;;4.83;68.15;100591.75;4406892;32;33140;-49
2020/12/15 05:23:23;;;;;;;30.50;16.33;;;;;;;4.50;69.40;100593.72;4407862;32;33623;-50
2020/12/15 05:26:02;;;;;;;46.00;17.55;;;;;;;4.28;70.28;100587.78;4404583;32;35802;-49
2020/12/15 05:28:32;;;;;;;30.00;15.88;;;;;;;4.70;68.78;100595.34;4403330;32;32863;-48
2020/12/15 05:31:00;;;;;;;29.10;15.77;;;;;;;4.77;68.34;100589.19;4401223;32;33465;-50
2020/12/15 05:33:31;;;;;;;32.67;18.37;;;;;;;4.56;69.45;100588.47;4393425;32;33659;-48
2020/12/15 05:35:59;;;;;;;28.30;16.12;;;;;;;4.53;69.58;100582.38;4408269;32;34862;-52
2020/12/15 05:38:26;;;;;;;30.40;15.90;;;;;;;4.65;69.22;100594.50;4406164;32;35177;-49
2020/12/15 05:40:57;;;;;;;27.17;15.75;;;;;;;4.52;69.89;100596.34;4391268;32;33277;-53
2020/12/15 05:43:38;;;;;;;27.45;14.43;;;;;;;4.73;69.15;100597.94;4406063;32;33972;-48
2020/12/15 05:46:07;;;;;;;29.55;15.15;;;;;;;5.03;67.86;100600.34;4415005;32;35917;-49
2020/12/15 05:48:36;;;;;;;30.05;16.20;;;;;;;4.68;69.23;100591.88;4402800;32;34459;-50
2020/12/15 05:51:03;;;;;;;29.30;16.05;;;;;;;4.82;68.98;100585.66;4406556;32;33978;-49
2020/12/15 05:53:31;;;;;;;29.45;17.00;;;;;;;4.94;68.45;100586.44;4422063;32;34325;-49
2020/12/15 05:55:58;;;;;;;30.00;16.08;;;;;;;4.80;68.73;100582.19;4418899;32;35244;-49
2020/12/15 05:58:25;;;;;;;34.10;18.45;;;;;;;4.93;68.63;100592.56;4396489;32;34195;-51
2020/12/15 06:00:52;;;;;;;32.67;18.17;;;;;;;5.01;68.56;100590.75;4396761;32;35120;-49
2020/12/15 06:03:19;;;;;;;31.87;18.77;;;;;;;5.07;68.32;100591.56;4411500;32;33842;-49
2020/12/15 06:05:48;;;;;;;36.28;18.85;;;;;;;4.69;69.66;100594.47;4414067;32;35931;-50
2020/12/15 06:08:18;;;;;;;34.78;18.73;;;;;;;5.05;68.47;100597.69;4384211;32;33163;-50
2020/12/15 06:10:49;;;;;;;34.17;19.05;;;;;;;5.01;68.60;100595.97;4392068;32;33313;-49
2020/12/15 06:13:16;;;;;;;31.05;17.55;;;;;;;4.72;69.54;100604.94;4388902;32;33385;-50
2020/12/15 06:15:43;;;;;;;36.28;17.65;;;;;;;4.80;69.57;100603.13;4410115;32;35141;-51
2020/12/15 06:18:11;;;;;;;31.58;17.83;;;;;;;5.42;67.43;100592.13;4394563;32;34234;-51
2020/12/15 06:20:39;;;;;;;37.40;17.00;;;;;;;4.82;68.99;100606.59;4398647;32;33221;-51
2020/12/15 06:23:11;;;;;;;34.80;17.00;;;;;;;4.56;70.06;100616.37;4400044;32;33473;-49
2020/12/15 06:25:38;;;;;;;31.70;16.35;;;;;;;4.52;70.03;100622.50;4391817;32;34684;-51
2020/12/15 06:28:08;;;;;;;30.58;17.48;;;;;;;4.74;69.63;100612.75;4397315;32;34617;-49
2020/12/15 06:30:37;;;;;;;35.45;18.35;;;;;;;4.03;71.88;100617.50;4414037;32;33176;-53
2020/12/15 06:33:11;;;;;;;28.73;15.75;;;;;;;4.60;69.77;100611.13;4398793;32;33847;-48
2020/12/15 06:35:38;;;;;;;;;;;;;;;4.66;69.73;100604.97;4398521;32;34674;-49
2020/12/15 06:38:15;;;;;;;35.28;17.30;;;;;;;4.26;71.50;100610.41;4409626;32;35633;-51
2020/12/15 06:40:45;;;;;;;38.15;17.73;;;;;;;4.69;70.08;100604.06;4392336;32;33515;-50
2020/12/15 06:43:24;;;;;;;31.00;16.23;;;;;;;4.34;71.08;100605.16;4400571;32;33091;-49
2020/12/15 06:45:51;;;;;;;36.58;17.85;;;;;;;4.21;72.24;100600.88;4391801;32;35619;-49
2020/12/15 06:48:22;;;;;;;35.30;17.80;;;;;;;4.46;70.84;100596.37;4407098;32;34204;-48
2020/12/15 06:50:51;;;;;;;34.05;17.10;;;;;;;4.85;69.42;100580.41;4392589;32;32175;-50
2020/12/15 06:53:19;;;;;;;34.63;17.50;;;;;;;4.17;71.65;100581.72;4403511;32;33829;-52
2020/12/15 06:55:57;;;;;;;32.05;17.15;;;;;;;4.41;71.21;100588.53;4393530;32;34832;-51
2020/12/15 06:58:25;;;;;;;40.65;19.02;;;;;;;4.22;71.77;100589.53;4383408;32;33929;-49
2020/12/15 07:00:53;;;;;;;43.78;21.12;;;;;;;4.32;71.38;100581.66;4406671;32;34203;-50
2020/12/15 07:03:37;;;;;;;46.60;22.17;;;;;;;4.21;72.04;100585.19;4408088;32;34440;-49
2020/12/15 07:06:23;;;;;;;40.75;20.65;;;;;;;4.40;71.50;100585.94;4388810;32;34817;-52
2020/12/15 07:09:16;;;;;;;48.17;21.50;;;;;;;4.34;71.60;100592.97;4404566;32;34217;-48
2020/12/15 07:11:43;;;;;;;49.50;21.90;;;;;;;4.36;71.71;100601.66;4393643;32;33156;-49
2020/12/15 07:14:23;;;;;;;42.28;19.73;;;;;;;4.30;71.80;100604.31;4397013;32;33919;-48
2020/12/15 07:16:51;;;;;;;41.35;16.35;;;;;;;4.22;72.27;100605.22;4400489;32;35002;-50
2020/12/15 07:19:18;;;;;;;44.42;19.90;;;;;;;3.86;73.58;100607.13;4410205;32;34946;-50
2020/12/15 07:21:46;;;;;;;40.03;18.83;;;;;;;4.48;71.54;100600.72;4404460;32;34171;-50
2020/12/15 07:24:13;;;;;;;39.20;17.27;;;;;;;4.62;70.64;100595.41;4404381;32;34755;-51
2020/12/15 07:26:42;;;;;;;37.95;18.77;;;;;;;4.59;70.77;100600.66;4408878;32;35355;-51
2020/12/15 07:29:09;;;;;;;40.75;18.12;;;;;;;4.37;71.30;100607.78;4407928;32;33666;-50
2020/12/15 07:31:39;;;;;;;36.28;16.80;;;;;;;4.26;72.07;100628.72;4407557;32;34273;-51
2020/12/15 07:34:22;;;;;;;37.13;17.87;;;;;;;4.14;72.07;100620.94;4394632;32;33602;-49
2020/12/15 07:36:51;;;;;;;38.90;17.02;;;;;;;4.26;72.06;100618.25;4407031;32;35785;-50
2020/12/15 07:39:19;;;;;;;35.65;16.45;;;;;;;4.46;71.40;100612.06;4394286;32;35258;-49
2020/12/15 07:42:06;;;;;;;37.08;16.02;;;;;;;4.58;70.79;100618.09;4390817;32;31710;-51
2020/12/15 07:44:43;;;;;;;40.88;19.90;;;;;;;4.69;70.57;100612.78;4403763;32;34287;-50
2020/12/15 07:47:10;;;;;;;35.30;15.48;;;;;;;4.41;71.62;100616.44;4406923;32;35806;-50
2020/12/15 07:49:38;;;;;;;37.92;16.77;;;;;;;4.28;71.58;100613.91;4404801;32;34894;-50
2020/12/15 07:52:06;;;;;;;38.20;16.23;;;;;;;4.48;71.08;100613.78;4393751;32;34244;-55
2020/12/15 07:54:33;;;;;;;36.38;16.65;;;;;;;4.33;71.62;100616.50;4389277;32;33850;-50
2020/12/15 07:57:02;;;;;;;36.05;16.42;;;;;;;4.36;72.06;100612.09;4391575;32;35004;-48
2020/12/15 07:59:30;;;;;;;47.58;21.02;;;;;;;4.01;72.83;100634.94;4402126;32;34426;-53
2020/12/15 08:01:58;;;;;;;39.85;17.23;;;;;;;4.00;73.17;100634.06;4392493;32;33991;-51
2020/12/15 08:04:26;;;;;;;41.40;16.58;;;;;;;3.91;73.46;100633.22;4405559;32;33949;-50
2020/12/15 08:06:53;;;;;;;41.63;18.30;;;;;;;4.08;73.12;100632.31;4402504;32;35912;-50
2020/12/15 08:09:20;;;;;;;41.20;17.02;;;;;;;3.45;75.56;100639.41;4404695;32;33986;-48
2020/12/15 08:11:49;;;;;;;38.03;17.23;;;;;;;3.66;75.02;100648.13;4414928;32;32858;-50
2020/12/15 08:14:17;;;;;;;43.72;21.05;;;;;;;3.80;74.57;100652.44;4386940;32;33859;-49
2020/12/15 08:16:45;;;;;;;41.00;16.52;;;;;;;3.93;73.96;100641.94;4397939;32;34995;-50
2020/12/15 08:19:14;;;;;;;47.55;19.73;;;;;;;3.89;74.07;100656.72;4388383;32;34848;-52
2020/12/15 08:21:46;;;;;;;41.25;15.68;;;;;;;3.94;74.23;100656.72;4392059;32;33594;-51
2020/12/15 08:24:15;;;;;;;38.10;16.10;;;;;;;4.17;73.04;100661.88;4405428;32;33587;-50
2020/12/15 08:26:45;;;;;;;32.33;13.65;;;;;;;3.97;73.59;100659.34;4394884;32;34237;-49
2020/12/15 08:29:13;;;;;;;35.38;15.05;;;;;;;3.85;74.14;100655.91;4405560;32;34225;-52
2020/12/15 08:31:42;;;;;;;34.03;15.15;;;;;;;3.54;75.09;100659.44;4392179;32;33208;-50
2020/12/15 08:34:10;;;;;;;36.05;14.93;;;;;;;3.85;73.82;100661.13;4366023;32;33528;-54
2020/12/15 08:36:50;;;;;;;35.28;13.95;;;;;;;3.79;74.01;100655.88;4390004;32;34892;-52
2020/12/15 08:39:26;;;;;;;25.98;11.30;;;;;;;3.25;75.78;100662.06;4409934;32;34310;-52
2020/12/15 08:41:56;;;;;;;25.75;11.68;;;;;;;3.52;74.28;100664.66;4371339;32;34126;-51
2020/12/15 08:44:25;;;;;;;28.02;12.10;;;;;;;3.63;73.70;100669.88;4405766;32;34756;-50
2020/12/15 08:46:56;;;;;;;27.58;12.50;;;;;;;3.53;74.23;100669.00;4392634;32;34950;-48
2020/12/15 08:49:26;;;;;;;30.40;13.93;;;;;;;3.85;73.04;100668.09;4383829;32;34055;-51
2020/12/15 08:51:54;;;;;;;26.50;10.80;;;;;;;3.73;73.81;100671.59;4387963;32;33417;-49
2020/12/15 08:54:22;;;;;;;29.00;12.57;;;;;;;4.06;72.37;100670.63;4400459;32;33743;-49
2020/12/15 08:56:49;;;;;;;30.40;12.90;;;;;;;3.49;74.19;100671.63;4389859;32;34664;-49
2020/12/15 08:59:18;;;;;;;34.70;12.07;;;;;;;3.32;75.07;100676.84;4405883;32;34116;-51
2020/12/15 09:01:46;;;;;;;34.90;12.25;;;;;;;3.62;74.18;100668.13;4387522;32;33199;-52
2020/12/15 09:04:24;;;;;;;30.25;12.35;;;;;;;3.56;74.35;100673.34;4393340;32;33520;-50
2020/12/15 09:06:51;;;;;;;30.90;12.07;;;;;;;3.93;73.12;100679.38;4398172;32;35840;-50
2020/12/15 09:09:28;;;;;;;34.30;13.80;;;;;;;3.99;72.98;100675.91;4406503;32;34933;-49
2020/12/15 09:11:56;;;;;;;38.40;14.68;;;;;;;4.01;73.01;100674.13;4381107;32;33361;-51
2020/12/15 09:14:23;;;;;;;31.20;13.82;;;;;;;3.67;74.48;100689.03;4406862;32;33656;-53
2020/12/15 09:16:50;;;;;;;37.67;13.93;;;;;;;3.38;75.79;100681.22;4416693;32;34817;-49
2020/12/15 09:19:22;;;;;;;36.60;16.73;;;;;;;3.97;73.91;100678.50;4380855;32;34470;-52
2020/12/15 09:22:06;;;;;;;40.12;15.50;;;;;;;3.58;75.17;100682.06;4390336;32;33393;-51
2020/12/15 09:24:34;;;;;;;38.55;14.80;;;;;;;3.73;74.63;100676.81;4396850;32;34888;-49
2020/12/15 09:27:02;;;;;;;37.33;15.00;;;;;;;3.59;75.33;100674.22;4406936;32;34747;-53
2020/12/15 09:29:30;;;;;;;35.45;14.25;;;;;;;3.97;74.15;100668.03;4393297;32;34292;-51
2020/12/15 09:31:59;;;;;;;39.80;15.82;;;;;;;3.94;74.20;100661.94;4411769;32;33201;-52
2020/12/15 09:34:29;;;;;;;35.13;14.77;;;;;;;3.96;73.55;100666.31;4389094;32;33628;-50
2020/12/15 09:36:57;;;;;;;34.22;13.15;;;;;;;4.35;72.23;100657.44;4408459;32;34613;-52
2020/12/15 09:39:28;;;;;;;37.10;13.68;;;;;;;3.87;73.87;100675.91;4406136;32;34088;-51
2020/12/15 09:41:59;;;;;;;28.35;13.25;;;;;;;3.78;74.53;100675.06;4407144;32;34063;-52
2020/12/15 09:44:27;;;;;;;46.60;16.12;;;;;;;3.87;74.73;100668.06;4396581;32;34716;-50
2020/12/15 09:46:55;;;;;;;34.55;13.43;;;;;;;3.83;74.44;100673.31;4402540;32;34944;-49
2020/12/15 09:49:23;;;;;;;36.85;14.60;;;;;;;3.94;73.75;100675.91;4401147;32;34924;-51
2020/12/15 09:51:50;;;;;;;38.83;15.05;;;;;;;4.19;73.24;100674.06;4403982;32;33111;-50
2020/12/15 09:54:17;;;;;;;43.22;16.15;;;;;;;3.98;74.25;100676.75;4409895;32;33752;-49
2020/12/15 09:56:45;;;;;;;41.42;16.05;;;;;;;4.01;74.21;100674.13;4404089;32;66652;-52
2020/12/15 09:59:14;;;;;;;42.33;16.40;;;;;;;4.05;74.02;100674.13;4392567;32;34243;-48
2020/12/15 10:01:42;;;;;;;41.03;15.82;;;;;;;3.84;74.96;100672.41;4391687;32;34239;-50
2020/12/15 10:04:10;;;;;;;40.50;16.23;;;;;;;3.91;74.36;100668.06;4394998;32;34313;-49
2020/12/15 10:06:38;;;;;;;42.72;16.90;;;;;;;3.95;74.35;100671.56;4407367;32;34845;-48
2020/12/15 10:09:07;;;;;;;61.88;34.70;;;;;;;4.06;74.37;100664.53;4401437;32;34067;-51
2020/12/15 10:11:34;;;;;;;38.92;14.30;;;;;;;3.77;75.46;100675.94;4408502;32;33999;-48
2020/12/15 10:14:02;;;;;;;39.30;16.15;;;;;;;3.89;74.20;100671.53;4403249;32;34592;-50
2020/12/15 10:16:30;;;;;;;40.55;14.87;;;;;;;3.63;75.14;100675.09;4417682;32;34517;-50
2020/12/15 10:18:59;;;;;;;35.83;15.55;;;;;;;3.94;73.99;100669.78;4409591;32;34338;-49
2020/12/15 10:21:26;;;;;;;33.53;13.90;;;;;;;3.68;75.14;100668.13;4406714;32;33504;-50
2020/12/15 10:23:53;;;;;;;31.77;13.40;;;;;;;3.94;73.70;100659.34;4394568;32;33834;-51
2020/12/15 10:26:24;;;;;;;36.28;13.00;;;;;;;4.33;72.25;100658.34;4405700;32;34872;-53
2020/12/15 10:28:56;;;;;;;30.50;12.35;;;;;;;4.24;72.23;100664.47;4391666;32;33457;-50
2020/12/15 10:31:24;;;;;;;32.60;13.02;;;;;;;4.16;72.70;100660.16;4391457;32;33249;-49
2020/12/15 10:33:51;;;;;;;28.98;12.10;;;;;;;4.04;73.26;100666.28;4394881;32;34279;-49
2020/12/15 10:36:18;;;;;;;33.85;12.85;;;;;;;3.65;74.80;100664.63;4400196;32;34858;-52
2020/12/15 10:38:46;;;;;;;25.27;11.88;;;;;;;4.12;72.73;100664.50;4404172;32;32631;-51
2020/12/15 10:41:13;;;;;;;29.27;11.77;;;;;;;4.52;71.11;100653.87;4413556;32;33245;-49
2020/12/15 10:43:40;;;;;;;27.85;12.13;;;;;;;4.22;72.39;100663.59;4400282;32;33937;-50
2020/12/15 10:46:25;;;;;;;26.55;11.45;;;;;;;3.97;73.30;100664.56;4402801;32;35055;-50
2020/12/15 10:48:53;;;;;;;28.20;12.82;;;;;;;4.37;72.21;100654.84;4405271;32;34485;-51
2020/12/15 10:51:20;;;;;;;29.23;11.75;;;;;;;4.23;72.45;100660.13;4401244;32;33270;-49
2020/12/15 10:53:47;;;;;;;34.88;13.60;;;;;;;4.32;71.96;100660.09;4407367;32;34321;-50
2020/12/15 10:56:15;;;;;;;31.83;12.30;;;;;;;4.02;73.08;100647.13;4408710;32;34634;-53
2020/12/15 10:58:42;;;;;;;35.38;13.32;;;;;;;4.35;72.05;100646.97;4379943;32;35223;-52
2020/12/15 11:01:10;;;;;;;29.52;12.95;;;;;;;4.46;71.75;100638.19;4409605;32;33293;-52
2020/12/15 11:03:38;;;;;;;28.10;12.65;;;;;;;4.59;71.09;100645.12;4394116;32;32514;-51
2020/12/15 11:06:05;;;;;;;53.95;29.42;;;;;;;4.30;71.95;100646.13;4407616;32;34621;-53
2020/12/15 11:08:35;;;;;;;46.17;22.83;;;;;;;4.22;72.33;100649.66;4393285;32;33892;-50
2020/12/15 11:11:03;;;;;;;37.08;14.70;;;;;;;4.33;72.20;100642.66;4398185;32;33997;-51
2020/12/15 11:13:30;;;;;;;68.75;34.95;;;;;;;4.84;70.46;100641.47;4403230;32;34439;-51
2020/12/15 11:15:58;;;;;;;37.47;16.15;;;;;;;4.69;71.53;100640.69;4402392;32;34745;-50
2020/12/15 11:18:26;;;;;;;34.13;14.38;;;;;;;4.78;70.96;100635.41;4400298;32;34226;-54
2020/12/15 11:20:53;;;;;;;35.50;15.70;;;;;;;4.59;71.86;100634.66;4392157;32;33325;-50
2020/12/15 11:23:20;;;;;;;39.75;14.60;;;;;;;4.55;71.80;100633.78;4399090;32;34710;-51
2020/12/15 11:25:49;;;;;;;35.45;15.40;;;;;;;4.56;72.04;100621.59;4393453;32;34516;-53